sensor_id;sensor_type;location;lat;lon;timestamp;P1;durP1;ratioP1;P2;durP2;ratioP2
23072;SDS011;67971;51.046;3.732;2023-07-24T00:01:16;5.35;;;4.30;;
23072;SDS011;67971;51.046;3.732;2023-07-24T00:03:43;5.35;;;3.95;;
23072;SDS011;67971;51.046;3.732;2023-07-24T00:06:09;5.20;;;3.85;;
23072;SDS011;67971;51.046;3.732;2023-07-24T00:08:34;5.18;;;4.10;;
23072;SDS011;67971;51.046;3.732;2023-07-24T00:11:00;5.95;;;4.00;;
23072;SDS011;67971;51.046;3.732;2023-07-24T00:13:27;4.70;;;3.75;;
23072;SDS011;67971;51.046;3.732;2023-07-24T00:15:53;6.28;;;3.65;;
23072;SDS011;67971;51.046;3.732;2023-07-24T00:18:19;6.10;;;3.63;;
23072;SDS011;67971;51.046;3.732;2023-07-24T00:20:44;3.70;;;2.97;;
23072;SDS011;67971;51.046;3.732;2023-07-24T00:23:10;5.93;;;3.70;;
23072;SDS011;67971;51.046;3.732;2023-07-24T00:25:35;4.75;;;3.35;;
23072;SDS011;67971;51.046;3.732;2023-07-24T00:28:01;4.15;;;3.70;;
23072;SDS011;67971;51.046;3.732;2023-07-24T00:30:27;4.75;;;3.42;;
23072;SDS011;67971;51.046;3.732;2023-07-24T00:32:52;4.90;;;3.83;;
23072;SDS011;67971;51.046;3.732;2023-07-24T00:35:18;5.88;;;3.53;;
23072;SDS011;67971;51.046;3.732;2023-07-24T00:37:43;3.83;;;3.38;;
23072;SDS011;67971;51.046;3.732;2023-07-24T00:40:09;5.40;;;3.80;;
23072;SDS011;67971;51.046;3.732;2023-07-24T00:42:35;4.35;;;3.35;;
23072;SDS011;67971;51.046;3.732;2023-07-24T00:45:01;7.13;;;4.00;;
23072;SDS011;67971;51.046;3.732;2023-07-24T00:47:26;4.97;;;3.70;;
23072;SDS011;67971;51.046;3.732;2023-07-24T00:49:53;5.03;;;4.20;;
23072;SDS011;67971;51.046;3.732;2023-07-24T00:52:19;5.25;;;3.75;;
23072;SDS011;67971;51.046;3.732;2023-07-24T00:54:46;4.78;;;3.88;;
23072;SDS011;67971;51.046;3.732;2023-07-24T00:57:12;4.25;;;3.60;;
23072;SDS011;67971;51.046;3.732;2023-07-24T00:59:38;4.07;;;3.42;;
23072;SDS011;67971;51.046;3.732;2023-07-24T01:02:04;5.88;;;4.05;;
23072;SDS011;67971;51.046;3.732;2023-07-24T01:04:30;4.28;;;3.38;;
23072;SDS011;67971;51.046;3.732;2023-07-24T01:06:56;3.75;;;3.38;;
23072;SDS011;67971;51.046;3.732;2023-07-24T01:09:22;4.82;;;3.35;;
23072;SDS011;67971;51.046;3.732;2023-07-24T01:11:54;6.35;;;3.72;;
23072;SDS011;67971;51.046;3.732;2023-07-24T01:14:29;4.30;;;3.50;;
23072;SDS011;67971;51.046;3.732;2023-07-24T01:17:02;5.90;;;3.65;;
23072;SDS011;67971;51.046;3.732;2023-07-24T01:20:17;7.80;;;3.50;;
23072;SDS011;67971;51.046;3.732;2023-07-24T01:27:47;4.35;;;3.35;;
23072;SDS011;67971;51.046;3.732;2023-07-24T01:30:16;5.40;;;4.07;;
23072;SDS011;67971;51.046;3.732;2023-07-24T01:32:43;4.53;;;3.75;;
23072;SDS011;67971;51.046;3.732;2023-07-24T01:35:09;5.18;;;4.38;;
23072;SDS011;67971;51.046;3.732;2023-07-24T01:37:35;7.00;;;3.85;;
23072;SDS011;67971;51.046;3.732;2023-07-24T01:40:04;10.57;;;3.67;;
23072;SDS011;67971;51.046;3.732;2023-07-24T01:42:33;4.38;;;3.85;;
23072;SDS011;67971;51.046;3.732;2023-07-24T01:45:00;5.15;;;3.88;;
23072;SDS011;67971;51.046;3.732;2023-07-24T01:47:27;5.25;;;3.88;;
23072;SDS011;67971;51.046;3.732;2023-07-24T01:49:52;7.07;;;3.83;;
23072;SDS011;67971;51.046;3.732;2023-07-24T01:52:18;7.07;;;4.03;;
23072;SDS011;67971;51.046;3.732;2023-07-24T01:54:44;3.88;;;3.10;;
23072;SDS011;67971;51.046;3.732;2023-07-24T01:57:09;5.10;;;3.60;;
23072;SDS011;67971;51.046;3.732;2023-07-24T01:59:35;5.63;;;3.67;;
23072;SDS011;67971;51.046;3.732;2023-07-24T02:02:01;6.65;;;3.88;;
23072;SDS011;67971;51.046;3.732;2023-07-24T02:04:26;6.50;;;4.15;;
23072;SDS011;67971;51.046;3.732;2023-07-24T02:06:52;6.88;;;3.70;;
23072;SDS011;67971;51.046;3.732;2023-07-24T02:09:17;8.60;;;4.28;;
23072;SDS011;67971;51.046;3.732;2023-07-24T02:11:43;8.35;;;4.22;;
23072;SDS011;67971;51.046;3.732;2023-07-24T02:14:10;6.10;;;4.13;;
23072;SDS011;67971;51.046;3.732;2023-07-24T02:16:36;5.85;;;3.67;;
23072;SDS011;67971;51.046;3.732;2023-07-24T02:19:02;6.30;;;4.13;;
23072;SDS011;67971;51.046;3.732;2023-07-24T02:21:27;7.30;;;4.55;;
23072;SDS011;67971;51.046;3.732;2023-07-24T02:23:53;9.05;;;3.85;;
23072;SDS011;67971;51.046;3.732;2023-07-24T02:26:19;8.55;;;4.63;;
23072;SDS011;67971;51.046;3.732;2023-07-24T02:28:44;6.05;;;5.05;;
23072;SDS011;67971;51.046;3.732;2023-07-24T02:31:10;6.60;;;4.35;;
23072;SDS011;67971;51.046;3.732;2023-07-24T02:33:36;10.30;;;5.22;;
23072;SDS011;67971;51.046;3.732;2023-07-24T02:36:02;6.13;;;4.70;;
23072;SDS011;67971;51.046;3.732;2023-07-24T02:38:27;6.63;;;4.88;;
23072;SDS011;67971;51.046;3.732;2023-07-24T02:40:53;6.80;;;4.80;;
23072;SDS011;67971;51.046;3.732;2023-07-24T02:43:19;5.10;;;4.30;;
23072;SDS011;67971;51.046;3.732;2023-07-24T02:45:44;7.25;;;4.40;;
23072;SDS011;67971;51.046;3.732;2023-07-24T02:48:10;7.88;;;4.30;;
23072;SDS011;67971;51.046;3.732;2023-07-24T02:50:36;5.20;;;4.07;;
23072;SDS011;67971;51.046;3.732;2023-07-24T02:53:02;6.78;;;4.68;;
23072;SDS011;67971;51.046;3.732;2023-07-24T02:55:28;5.53;;;3.92;;
23072;SDS011;67971;51.046;3.732;2023-07-24T02:57:53;28.77;;;4.20;;
23072;SDS011;67971;51.046;3.732;2023-07-24T03:00:19;5.25;;;4.07;;
23072;SDS011;67971;51.046;3.732;2023-07-24T03:02:45;5.07;;;4.30;;
23072;SDS011;67971;51.046;3.732;2023-07-24T03:05:10;7.97;;;4.70;;
23072;SDS011;67971;51.046;3.732;2023-07-24T03:07:36;5.60;;;3.60;;
23072;SDS011;67971;51.046;3.732;2023-07-24T03:10:02;5.28;;;3.80;;
23072;SDS011;67971;51.046;3.732;2023-07-24T03:12:28;7.13;;;4.68;;
23072;SDS011;67971;51.046;3.732;2023-07-24T03:14:54;6.03;;;3.50;;
23072;SDS011;67971;51.046;3.732;2023-07-24T03:17:19;6.00;;;4.25;;
23072;SDS011;67971;51.046;3.732;2023-07-24T03:19:45;8.20;;;4.20;;
23072;SDS011;67971;51.046;3.732;2023-07-24T03:22:11;6.80;;;4.20;;
23072;SDS011;67971;51.046;3.732;2023-07-24T03:24:36;7.75;;;4.45;;
23072;SDS011;67971;51.046;3.732;2023-07-24T03:27:02;6.70;;;4.23;;
23072;SDS011;67971;51.046;3.732;2023-07-24T03:29:28;5.00;;;4.10;;
23072;SDS011;67971;51.046;3.732;2023-07-24T03:31:53;5.68;;;4.47;;
23072;SDS011;67971;51.046;3.732;2023-07-24T03:34:19;4.68;;;4.00;;
23072;SDS011;67971;51.046;3.732;2023-07-24T03:36:45;7.72;;;4.85;;
23072;SDS011;67971;51.046;3.732;2023-07-24T03:39:10;5.30;;;4.18;;
23072;SDS011;67971;51.046;3.732;2023-07-24T03:41:37;6.68;;;4.45;;
23072;SDS011;67971;51.046;3.732;2023-07-24T03:44:03;5.38;;;4.55;;
23072;SDS011;67971;51.046;3.732;2023-07-24T03:46:29;6.28;;;4.47;;
23072;SDS011;67971;51.046;3.732;2023-07-24T03:48:56;5.68;;;4.05;;
23072;SDS011;67971;51.046;3.732;2023-07-24T03:51:22;6.97;;;4.45;;
23072;SDS011;67971;51.046;3.732;2023-07-24T03:53:47;6.65;;;4.78;;
23072;SDS011;67971;51.046;3.732;2023-07-24T03:56:13;7.60;;;4.47;;
23072;SDS011;67971;51.046;3.732;2023-07-24T03:58:38;8.60;;;4.38;;
23072;SDS011;67971;51.046;3.732;2023-07-24T04:01:04;5.53;;;4.63;;
23072;SDS011;67971;51.046;3.732;2023-07-24T04:03:30;6.53;;;4.82;;
23072;SDS011;67971;51.046;3.732;2023-07-24T04:05:56;9.90;;;5.03;;
23072;SDS011;67971;51.046;3.732;2023-07-24T04:08:22;6.55;;;5.25;;
23072;SDS011;67971;51.046;3.732;2023-07-24T04:10:48;5.53;;;4.10;;
23072;SDS011;67971;51.046;3.732;2023-07-24T04:13:13;6.80;;;4.60;;
23072;SDS011;67971;51.046;3.732;2023-07-24T04:15:39;6.45;;;4.10;;
23072;SDS011;67971;51.046;3.732;2023-07-24T04:18:04;6.23;;;4.80;;
23072;SDS011;67971;51.046;3.732;2023-07-24T04:20:30;5.87;;;4.93;;
23072;SDS011;67971;51.046;3.732;2023-07-24T04:22:56;7.25;;;5.55;;
23072;SDS011;67971;51.046;3.732;2023-07-24T04:25:21;6.97;;;5.25;;
23072;SDS011;67971;51.046;3.732;2023-07-24T04:27:47;9.98;;;5.82;;
23072;SDS011;67971;51.046;3.732;2023-07-24T04:30:13;6.70;;;5.18;;
23072;SDS011;67971;51.046;3.732;2023-07-24T04:32:38;8.45;;;5.22;;
23072;SDS011;67971;51.046;3.732;2023-07-24T04:35:04;9.63;;;5.55;;
23072;SDS011;67971;51.046;3.732;2023-07-24T04:37:30;6.25;;;4.07;;
23072;SDS011;67971;51.046;3.732;2023-07-24T04:39:56;6.00;;;4.25;;
23072;SDS011;67971;51.046;3.732;2023-07-24T04:42:22;5.85;;;4.70;;
23072;SDS011;67971;51.046;3.732;2023-07-24T04:44:47;7.22;;;5.13;;
23072;SDS011;67971;51.046;3.732;2023-07-24T04:47:15;6.80;;;4.55;;
23072;SDS011;67971;51.046;3.732;2023-07-24T04:49:40;6.03;;;4.82;;
23072;SDS011;67971;51.046;3.732;2023-07-24T04:52:06;9.02;;;4.80;;
23072;SDS011;67971;51.046;3.732;2023-07-24T04:54:32;5.25;;;4.63;;
23072;SDS011;67971;51.046;3.732;2023-07-24T04:56:57;7.70;;;5.13;;
23072;SDS011;67971;51.046;3.732;2023-07-24T04:59:23;8.15;;;5.75;;
23072;SDS011;67971;51.046;3.732;2023-07-24T05:01:49;8.30;;;5.80;;
23072;SDS011;67971;51.046;3.732;2023-07-24T05:04:15;8.60;;;5.20;;
23072;SDS011;67971;51.046;3.732;2023-07-24T05:06:40;8.18;;;6.07;;
23072;SDS011;67971;51.046;3.732;2023-07-24T05:09:06;8.27;;;4.80;;
23072;SDS011;67971;51.046;3.732;2023-07-24T05:11:31;7.57;;;5.05;;
23072;SDS011;67971;51.046;3.732;2023-07-24T05:13:57;7.57;;;5.05;;
23072;SDS011;67971;51.046;3.732;2023-07-24T05:16:23;6.80;;;5.30;;
23072;SDS011;67971;51.046;3.732;2023-07-24T05:18:48;9.90;;;6.32;;
23072;SDS011;67971;51.046;3.732;2023-07-24T05:21:14;12.15;;;5.97;;
23072;SDS011;67971;51.046;3.732;2023-07-24T05:23:39;10.43;;;5.28;;
23072;SDS011;67971;51.046;3.732;2023-07-24T05:26:05;11.05;;;6.47;;
23072;SDS011;67971;51.046;3.732;2023-07-24T05:28:31;7.80;;;5.63;;
23072;SDS011;67971;51.046;3.732;2023-07-24T05:31:00;11.35;;;5.68;;
23072;SDS011;67971;51.046;3.732;2023-07-24T05:33:27;9.02;;;6.15;;
23072;SDS011;67971;51.046;3.732;2023-07-24T05:35:57;11.38;;;6.72;;
23072;SDS011;67971;51.046;3.732;2023-07-24T05:38:27;7.07;;;5.32;;
23072;SDS011;67971;51.046;3.732;2023-07-24T05:40:56;9.45;;;5.85;;
23072;SDS011;67971;51.046;3.732;2023-07-24T05:43:25;8.95;;;5.55;;
23072;SDS011;67971;51.046;3.732;2023-07-24T05:45:52;10.63;;;6.13;;
23072;SDS011;67971;51.046;3.732;2023-07-24T05:48:18;11.48;;;5.93;;
23072;SDS011;67971;51.046;3.732;2023-07-24T05:50:44;8.02;;;5.90;;
23072;SDS011;67971;51.046;3.732;2023-07-24T05:53:10;12.27;;;6.55;;
23072;SDS011;67971;51.046;3.732;2023-07-24T05:55:35;8.07;;;6.13;;
23072;SDS011;67971;51.046;3.732;2023-07-24T05:58:01;9.60;;;5.78;;
23072;SDS011;67971;51.046;3.732;2023-07-24T06:00:27;14.40;;;6.78;;
23072;SDS011;67971;51.046;3.732;2023-07-24T06:02:53;8.30;;;5.82;;
23072;SDS011;67971;51.046;3.732;2023-07-24T06:05:19;7.65;;;6.15;;
23072;SDS011;67971;51.046;3.732;2023-07-24T06:07:45;17.33;;;6.75;;
23072;SDS011;67971;51.046;3.732;2023-07-24T06:10:11;8.77;;;6.15;;
23072;SDS011;67971;51.046;3.732;2023-07-24T06:12:37;10.52;;;7.05;;
23072;SDS011;67971;51.046;3.732;2023-07-24T06:15:03;7.35;;;6.07;;
23072;SDS011;67971;51.046;3.732;2023-07-24T06:17:28;10.52;;;7.13;;
23072;SDS011;67971;51.046;3.732;2023-07-24T06:19:55;7.95;;;6.68;;
23072;SDS011;67971;51.046;3.732;2023-07-24T06:22:20;10.02;;;6.85;;
23072;SDS011;67971;51.046;3.732;2023-07-24T06:24:46;9.88;;;7.53;;
23072;SDS011;67971;51.046;3.732;2023-07-24T06:27:12;10.38;;;7.43;;
23072;SDS011;67971;51.046;3.732;2023-07-24T06:29:37;11.40;;;7.07;;
23072;SDS011;67971;51.046;3.732;2023-07-24T06:32:03;12.75;;;7.13;;
23072;SDS011;67971;51.046;3.732;2023-07-24T06:34:29;9.98;;;7.35;;
23072;SDS011;67971;51.046;3.732;2023-07-24T06:36:55;9.02;;;6.82;;
23072;SDS011;67971;51.046;3.732;2023-07-24T06:39:20;9.45;;;6.63;;
23072;SDS011;67971;51.046;3.732;2023-07-24T06:41:46;9.85;;;6.85;;
23072;SDS011;67971;51.046;3.732;2023-07-24T06:44:11;8.80;;;6.55;;
23072;SDS011;67971;51.046;3.732;2023-07-24T06:46:37;10.75;;;7.05;;
23072;SDS011;67971;51.046;3.732;2023-07-24T06:49:03;11.07;;;6.70;;
23072;SDS011;67971;51.046;3.732;2023-07-24T06:51:29;8.10;;;6.97;;
23072;SDS011;67971;51.046;3.732;2023-07-24T06:53:54;8.73;;;6.90;;
23072;SDS011;67971;51.046;3.732;2023-07-24T06:56:20;9.75;;;7.10;;
23072;SDS011;67971;51.046;3.732;2023-07-24T06:58:45;11.93;;;7.70;;
23072;SDS011;67971;51.046;3.732;2023-07-24T07:01:11;11.30;;;7.50;;
23072;SDS011;67971;51.046;3.732;2023-07-24T07:03:36;9.07;;;7.43;;
23072;SDS011;67971;51.046;3.732;2023-07-24T07:06:02;17.00;;;7.70;;
23072;SDS011;67971;51.046;3.732;2023-07-24T07:08:28;12.70;;;8.45;;
23072;SDS011;67971;51.046;3.732;2023-07-24T07:10:58;11.80;;;7.72;;
23072;SDS011;67971;51.046;3.732;2023-07-24T07:13:24;9.32;;;6.78;;
23072;SDS011;67971;51.046;3.732;2023-07-24T07:15:50;9.48;;;7.70;;
23072;SDS011;67971;51.046;3.732;2023-07-24T07:18:16;7.22;;;6.22;;
23072;SDS011;67971;51.046;3.732;2023-07-24T07:20:45;7.60;;;6.28;;
23072;SDS011;67971;51.046;3.732;2023-07-24T07:23:12;6.73;;;5.33;;
23072;SDS011;67971;51.046;3.732;2023-07-24T07:25:37;6.95;;;5.53;;
23072;SDS011;67971;51.046;3.732;2023-07-24T07:28:03;8.15;;;5.70;;
23072;SDS011;67971;51.046;3.732;2023-07-24T07:30:29;11.27;;;5.57;;
23072;SDS011;67971;51.046;3.732;2023-07-24T07:32:55;8.20;;;5.72;;
23072;SDS011;67971;51.046;3.732;2023-07-24T07:35:20;8.00;;;4.85;;
23072;SDS011;67971;51.046;3.732;2023-07-24T07:37:46;6.72;;;4.57;;
23072;SDS011;67971;51.046;3.732;2023-07-24T07:40:11;6.72;;;4.60;;
23072;SDS011;67971;51.046;3.732;2023-07-24T07:42:37;5.22;;;4.57;;
23072;SDS011;67971;51.046;3.732;2023-07-24T07:45:03;5.43;;;4.70;;
23072;SDS011;67971;51.046;3.732;2023-07-24T07:47:29;7.38;;;4.88;;
23072;SDS011;67971;51.046;3.732;2023-07-24T07:49:55;4.72;;;4.13;;
23072;SDS011;67971;51.046;3.732;2023-07-24T07:52:21;5.85;;;5.00;;
23072;SDS011;67971;51.046;3.732;2023-07-24T07:54:50;7.78;;;4.03;;
23072;SDS011;67971;51.046;3.732;2023-07-24T07:57:15;5.85;;;3.92;;
23072;SDS011;67971;51.046;3.732;2023-07-24T07:59:41;5.80;;;4.70;;
23072;SDS011;67971;51.046;3.732;2023-07-24T08:02:07;5.13;;;3.90;;
23072;SDS011;67971;51.046;3.732;2023-07-24T08:04:33;4.28;;;3.88;;
23072;SDS011;67971;51.046;3.732;2023-07-24T08:06:58;5.05;;;3.80;;
23072;SDS011;67971;51.046;3.732;2023-07-24T08:09:24;4.57;;;3.45;;
23072;SDS011;67971;51.046;3.732;2023-07-24T08:11:50;4.55;;;3.97;;
23072;SDS011;67971;51.046;3.732;2023-07-24T08:14:16;5.88;;;4.50;;
23072;SDS011;67971;51.046;3.732;2023-07-24T08:16:42;4.20;;;3.80;;
23072;SDS011;67971;51.046;3.732;2023-07-24T08:19:08;8.10;;;4.50;;
23072;SDS011;67971;51.046;3.732;2023-07-24T08:21:34;5.38;;;4.25;;
23072;SDS011;67971;51.046;3.732;2023-07-24T08:23:59;5.65;;;4.57;;
23072;SDS011;67971;51.046;3.732;2023-07-24T08:26:26;4.50;;;3.90;;
23072;SDS011;67971;51.046;3.732;2023-07-24T08:28:52;5.13;;;4.30;;
23072;SDS011;67971;51.046;3.732;2023-07-24T08:31:18;4.63;;;4.10;;
23072;SDS011;67971;51.046;3.732;2023-07-24T08:33:44;6.97;;;4.43;;
23072;SDS011;67971;51.046;3.732;2023-07-24T08:36:09;4.95;;;4.45;;
23072;SDS011;67971;51.046;3.732;2023-07-24T08:38:37;5.32;;;4.60;;
23072;SDS011;67971;51.046;3.732;2023-07-24T08:41:04;4.68;;;4.05;;
23072;SDS011;67971;51.046;3.732;2023-07-24T08:43:32;5.28;;;3.95;;
23072;SDS011;67971;51.046;3.732;2023-07-24T08:45:59;7.55;;;4.70;;
23072;SDS011;67971;51.046;3.732;2023-07-24T08:48:27;8.27;;;3.92;;
23072;SDS011;67971;51.046;3.732;2023-07-24T08:50:55;5.60;;;4.18;;
23072;SDS011;67971;51.046;3.732;2023-07-24T08:53:22;5.03;;;4.05;;
23072;SDS011;67971;51.046;3.732;2023-07-24T08:55:49;7.28;;;4.40;;
23072;SDS011;67971;51.046;3.732;2023-07-24T08:58:16;7.20;;;4.50;;
23072;SDS011;67971;51.046;3.732;2023-07-24T09:00:41;6.85;;;4.00;;
23072;SDS011;67971;51.046;3.732;2023-07-24T09:03:07;6.80;;;4.65;;
23072;SDS011;67971;51.046;3.732;2023-07-24T09:05:33;5.38;;;4.28;;
23072;SDS011;67971;51.046;3.732;2023-07-24T09:07:59;6.95;;;4.40;;
23072;SDS011;67971;51.046;3.732;2023-07-24T09:10:25;5.03;;;4.28;;
23072;SDS011;67971;51.046;3.732;2023-07-24T09:12:51;4.55;;;3.72;;
23072;SDS011;67971;51.046;3.732;2023-07-24T09:15:17;7.88;;;4.07;;
23072;SDS011;67971;51.046;3.732;2023-07-24T09:17:49;5.43;;;4.70;;
23072;SDS011;67971;51.046;3.732;2023-07-24T09:20:16;5.53;;;4.88;;
23072;SDS011;67971;51.046;3.732;2023-07-24T09:22:52;8.60;;;5.30;;
23072;SDS011;67971;51.046;3.732;2023-07-24T09:25:29;5.35;;;4.57;;
23072;SDS011;67971;51.046;3.732;2023-07-24T09:27:58;12.20;;;5.30;;
23072;SDS011;67971;51.046;3.732;2023-07-24T09:30:24;10.88;;;5.07;;
23072;SDS011;67971;51.046;3.732;2023-07-24T09:32:53;12.05;;;5.28;;
23072;SDS011;67971;51.046;3.732;2023-07-24T09:35:19;8.82;;;5.47;;
23072;SDS011;67971;51.046;3.732;2023-07-24T09:37:47;6.88;;;5.00;;
23072;SDS011;67971;51.046;3.732;2023-07-24T09:40:14;7.78;;;5.82;;
23072;SDS011;67971;51.046;3.732;2023-07-24T09:42:40;7.28;;;5.28;;
23072;SDS011;67971;51.046;3.732;2023-07-24T09:45:06;7.82;;;5.88;;
23072;SDS011;67971;51.046;3.732;2023-07-24T09:47:33;10.73;;;5.70;;
23072;SDS011;67971;51.046;3.732;2023-07-24T09:50:02;9.60;;;4.60;;
23072;SDS011;67971;51.046;3.732;2023-07-24T09:52:29;7.68;;;5.22;;
23072;SDS011;67971;51.046;3.732;2023-07-24T09:55:01;8.63;;;4.30;;
23072;SDS011;67971;51.046;3.732;2023-07-24T09:57:33;7.28;;;5.07;;
23072;SDS011;67971;51.046;3.732;2023-07-24T10:00:00;5.38;;;4.53;;
23072;SDS011;67971;51.046;3.732;2023-07-24T10:02:26;11.85;;;4.55;;
23072;SDS011;67971;51.046;3.732;2023-07-24T10:04:53;12.75;;;4.75;;
23072;SDS011;67971;51.046;3.732;2023-07-24T10:07:20;10.32;;;4.50;;
23072;SDS011;67971;51.046;3.732;2023-07-24T10:09:48;13.07;;;4.82;;
23072;SDS011;67971;51.046;3.732;2023-07-24T10:12:16;7.53;;;3.80;;
23072;SDS011;67971;51.046;3.732;2023-07-24T10:14:43;5.97;;;3.80;;
23072;SDS011;67971;51.046;3.732;2023-07-24T10:17:10;6.85;;;3.70;;
23072;SDS011;67971;51.046;3.732;2023-07-24T10:19:36;5.32;;;4.07;;
23072;SDS011;67971;51.046;3.732;2023-07-24T10:22:05;7.50;;;4.20;;
23072;SDS011;67971;51.046;3.732;2023-07-24T10:24:31;6.82;;;4.13;;
23072;SDS011;67971;51.046;3.732;2023-07-24T10:26:58;8.30;;;4.20;;
23072;SDS011;67971;51.046;3.732;2023-07-24T10:29:24;8.50;;;4.82;;
23072;SDS011;67971;51.046;3.732;2023-07-24T10:31:53;8.10;;;4.00;;
23072;SDS011;67971;51.046;3.732;2023-07-24T10:34:19;6.45;;;4.30;;
23072;SDS011;67971;51.046;3.732;2023-07-24T10:36:45;5.97;;;4.32;;
23072;SDS011;67971;51.046;3.732;2023-07-24T10:39:14;7.07;;;4.68;;
23072;SDS011;67971;51.046;3.732;2023-07-24T10:41:42;7.78;;;4.70;;
23072;SDS011;67971;51.046;3.732;2023-07-24T10:44:10;7.03;;;5.13;;
23072;SDS011;67971;51.046;3.732;2023-07-24T10:46:36;9.05;;;5.65;;
23072;SDS011;67971;51.046;3.732;2023-07-24T10:49:02;5.70;;;4.28;;
23072;SDS011;67971;51.046;3.732;2023-07-24T10:51:29;5.88;;;4.05;;
23072;SDS011;67971;51.046;3.732;2023-07-24T10:53:57;6.82;;;4.15;;
23072;SDS011;67971;51.046;3.732;2023-07-24T10:56:23;8.18;;;4.85;;
23072;SDS011;67971;51.046;3.732;2023-07-24T10:58:48;7.63;;;4.80;;
23072;SDS011;67971;51.046;3.732;2023-07-24T11:01:14;5.82;;;4.53;;
23072;SDS011;67971;51.046;3.732;2023-07-24T11:03:40;5.32;;;4.32;;
23072;SDS011;67971;51.046;3.732;2023-07-24T11:06:17;8.48;;;4.55;;
23072;SDS011;67971;51.046;3.732;2023-07-24T11:08:57;6.20;;;4.00;;
23072;SDS011;67971;51.046;3.732;2023-07-24T11:11:31;6.53;;;4.40;;
23072;SDS011;67971;51.046;3.732;2023-07-24T11:13:57;11.88;;;4.25;;
23072;SDS011;67971;51.046;3.732;2023-07-24T11:16:23;6.55;;;4.63;;
23072;SDS011;67971;51.046;3.732;2023-07-24T11:18:50;6.72;;;4.82;;
23072;SDS011;67971;51.046;3.732;2023-07-24T11:21:20;6.45;;;3.95;;
23072;SDS011;67971;51.046;3.732;2023-07-24T11:23:50;9.65;;;5.20;;
23072;SDS011;67971;51.046;3.732;2023-07-24T11:26:24;6.78;;;4.55;;
23072;SDS011;67971;51.046;3.732;2023-07-24T11:28:51;7.68;;;5.10;;
23072;SDS011;67971;51.046;3.732;2023-07-24T11:31:17;6.93;;;5.18;;
23072;SDS011;67971;51.046;3.732;2023-07-24T11:33:46;8.98;;;5.85;;
23072;SDS011;67971;51.046;3.732;2023-07-24T11:36:15;11.18;;;5.45;;
23072;SDS011;67971;51.046;3.732;2023-07-24T11:38:41;9.05;;;5.07;;
23072;SDS011;67971;51.046;3.732;2023-07-24T11:41:10;8.10;;;5.32;;
23072;SDS011;67971;51.046;3.732;2023-07-24T11:43:44;11.02;;;5.65;;
23072;SDS011;67971;51.046;3.732;2023-07-24T11:46:11;9.27;;;4.75;;
23072;SDS011;67971;51.046;3.732;2023-07-24T11:48:40;9.68;;;6.00;;
23072;SDS011;67971;51.046;3.732;2023-07-24T11:51:06;7.05;;;4.55;;
23072;SDS011;67971;51.046;3.732;2023-07-24T11:53:32;11.40;;;6.15;;
23072;SDS011;67971;51.046;3.732;2023-07-24T11:55:58;9.30;;;5.28;;
23072;SDS011;67971;51.046;3.732;2023-07-24T11:58:28;8.25;;;5.00;;
23072;SDS011;67971;51.046;3.732;2023-07-24T12:00:55;9.48;;;5.53;;
23072;SDS011;67971;51.046;3.732;2023-07-24T12:03:22;8.45;;;5.07;;
23072;SDS011;67971;51.046;3.732;2023-07-24T12:05:52;8.25;;;5.30;;
23072;SDS011;67971;51.046;3.732;2023-07-24T12:08:19;9.20;;;5.13;;
23072;SDS011;67971;51.046;3.732;2023-07-24T12:10:48;8.73;;;5.60;;
23072;SDS011;67971;51.046;3.732;2023-07-24T12:13:14;9.63;;;5.60;;
23072;SDS011;67971;51.046;3.732;2023-07-24T12:15:40;11.50;;;6.28;;
23072;SDS011;67971;51.046;3.732;2023-07-24T12:18:06;8.40;;;5.80;;
23072;SDS011;67971;51.046;3.732;2023-07-24T12:20:32;7.57;;;6.00;;
23072;SDS011;67971;51.046;3.732;2023-07-24T12:22:59;10.48;;;6.72;;
23072;SDS011;67971;51.046;3.732;2023-07-24T12:25:25;11.48;;;7.45;;
23072;SDS011;67971;51.046;3.732;2023-07-24T12:27:51;15.30;;;7.30;;
23072;SDS011;67971;51.046;3.732;2023-07-24T12:30:16;14.95;;;7.85;;
23072;SDS011;67971;51.046;3.732;2023-07-24T12:32:42;12.73;;;7.40;;
23072;SDS011;67971;51.046;3.732;2023-07-24T12:35:08;15.93;;;7.60;;
23072;SDS011;67971;51.046;3.732;2023-07-24T12:37:34;14.82;;;7.65;;
23072;SDS011;67971;51.046;3.732;2023-07-24T12:40:00;20.63;;;7.60;;
23072;SDS011;67971;51.046;3.732;2023-07-24T12:42:26;14.70;;;7.75;;
23072;SDS011;67971;51.046;3.732;2023-07-24T12:44:51;13.27;;;7.60;;
23072;SDS011;67971;51.046;3.732;2023-07-24T12:47:17;9.68;;;6.55;;
23072;SDS011;67971;51.046;3.732;2023-07-24T12:49:43;12.32;;;5.18;;
23072;SDS011;67971;51.046;3.732;2023-07-24T12:52:09;13.80;;;5.68;;
23072;SDS011;67971;51.046;3.732;2023-07-24T12:54:36;12.98;;;4.65;;
23072;SDS011;67971;51.046;3.732;2023-07-24T12:57:01;11.55;;;4.82;;
23072;SDS011;67971;51.046;3.732;2023-07-24T12:59:27;11.10;;;5.82;;
23072;SDS011;67971;51.046;3.732;2023-07-24T13:01:53;11.02;;;5.68;;
23072;SDS011;67971;51.046;3.732;2023-07-24T13:04:19;13.30;;;5.57;;
23072;SDS011;67971;51.046;3.732;2023-07-24T13:06:45;11.93;;;5.78;;
23072;SDS011;67971;51.046;3.732;2023-07-24T13:09:11;10.38;;;5.47;;
23072;SDS011;67971;51.046;3.732;2023-07-24T13:11:37;16.58;;;7.30;;
23072;SDS011;67971;51.046;3.732;2023-07-24T13:14:03;16.52;;;6.22;;
23072;SDS011;67971;51.046;3.732;2023-07-24T13:16:28;17.38;;;7.65;;
23072;SDS011;67971;51.046;3.732;2023-07-24T13:18:54;14.13;;;7.07;;
23072;SDS011;67971;51.046;3.732;2023-07-24T13:21:20;14.73;;;7.50;;
23072;SDS011;67971;51.046;3.732;2023-07-24T13:23:45;25.13;;;9.88;;
23072;SDS011;67971;51.046;3.732;2023-07-24T13:26:11;14.35;;;6.85;;
23072;SDS011;67971;51.046;3.732;2023-07-24T13:28:38;15.23;;;6.63;;
23072;SDS011;67971;51.046;3.732;2023-07-24T13:31:10;15.57;;;6.90;;
23072;SDS011;67971;51.046;3.732;2023-07-24T13:33:36;13.63;;;7.57;;
23072;SDS011;67971;51.046;3.732;2023-07-24T13:36:02;15.27;;;6.82;;
23072;SDS011;67971;51.046;3.732;2023-07-24T13:38:28;13.38;;;6.60;;
23072;SDS011;67971;51.046;3.732;2023-07-24T13:40:53;11.38;;;6.57;;
23072;SDS011;67971;51.046;3.732;2023-07-24T13:43:19;15.30;;;6.85;;
23072;SDS011;67971;51.046;3.732;2023-07-24T13:45:45;13.43;;;5.97;;
23072;SDS011;67971;51.046;3.732;2023-07-24T13:48:11;12.85;;;6.38;;
23072;SDS011;67971;51.046;3.732;2023-07-24T13:50:36;15.93;;;5.65;;
23072;SDS011;67971;51.046;3.732;2023-07-24T13:53:02;12.20;;;5.45;;
23072;SDS011;67971;51.046;3.732;2023-07-24T13:55:27;11.23;;;5.40;;
23072;SDS011;67971;51.046;3.732;2023-07-24T13:57:53;10.88;;;5.72;;
23072;SDS011;67971;51.046;3.732;2023-07-24T14:00:19;10.98;;;5.70;;
23072;SDS011;67971;51.046;3.732;2023-07-24T14:02:44;7.05;;;5.78;;
23072;SDS011;67971;51.046;3.732;2023-07-24T14:05:10;12.73;;;6.05;;
23072;SDS011;67971;51.046;3.732;2023-07-24T14:07:36;8.18;;;5.47;;
23072;SDS011;67971;51.046;3.732;2023-07-24T14:10:01;13.73;;;5.05;;
23072;SDS011;67971;51.046;3.732;2023-07-24T14:12:27;7.65;;;5.55;;
23072;SDS011;67971;51.046;3.732;2023-07-24T14:14:52;11.07;;;6.00;;
23072;SDS011;67971;51.046;3.732;2023-07-24T14:17:18;10.30;;;5.60;;
23072;SDS011;67971;51.046;3.732;2023-07-24T14:19:44;13.63;;;5.05;;
23072;SDS011;67971;51.046;3.732;2023-07-24T14:22:10;11.63;;;5.50;;
23072;SDS011;67971;51.046;3.732;2023-07-24T14:24:35;9.07;;;5.22;;
23072;SDS011;67971;51.046;3.732;2023-07-24T14:27:01;12.52;;;6.10;;
23072;SDS011;67971;51.046;3.732;2023-07-24T14:29:27;9.15;;;5.60;;
23072;SDS011;67971;51.046;3.732;2023-07-24T14:31:52;12.05;;;5.65;;
23072;SDS011;67971;51.046;3.732;2023-07-24T14:34:18;11.00;;;6.05;;
23072;SDS011;67971;51.046;3.732;2023-07-24T14:36:43;14.45;;;5.25;;
23072;SDS011;67971;51.046;3.732;2023-07-24T14:39:09;11.65;;;5.60;;
23072;SDS011;67971;51.046;3.732;2023-07-24T14:41:35;9.13;;;5.50;;
23072;SDS011;67971;51.046;3.732;2023-07-24T14:44:00;8.77;;;4.70;;
23072;SDS011;67971;51.046;3.732;2023-07-24T14:46:26;6.50;;;3.92;;